sensor_id;sensor_type;location;lat;lon;timestamp;temperature;humidity
14600;DHT22;7386;45.586;12.854;2022-10-31T00:23:11;17.20;99.90
14600;DHT22;7386;45.586;12.854;2022-10-31T00:25:39;14.40;99.90
14600;DHT22;7386;45.586;12.854;2022-10-31T00:28:10;14.40;99.90
14600;DHT22;7386;45.586;12.854;2022-10-31T00:30:39;14.40;99.90
14600;DHT22;7386;45.586;12.854;2022-10-31T00:33:07;14.30;99.90
14600;DHT22;7386;45.586;12.854;2022-10-31T00:35:35;14.20;99.90
14600;DHT22;7386;45.586;12.854;2022-10-31T01:02:53;14.20;99.90
14600;DHT22;7386;45.586;12.854;2022-10-31T01:05:22;13.60;99.90
14600;DHT22;7386;45.586;12.854;2022-10-31T01:07:50;13.60;99.90
14600;DHT22;7386;45.586;12.854;2022-10-31T01:10:18;13.50;99.90
14600;DHT22;7386;45.586;12.854;2022-10-31T01:12:48;13.50;99.90
14600;DHT22;7386;45.586;12.854;2022-10-31T01:15:20;13.50;99.90
14600;DHT22;7386;45.586;12.854;2022-10-31T01:17:49;13.40;99.90
14600;DHT22;7386;45.586;12.854;2022-10-31T01:20:18;13.40;99.90
14600;DHT22;7386;45.586;12.854;2022-10-31T01:25:14;13.30;99.90
14600;DHT22;7386;45.586;12.854;2022-10-31T01:27:43;13.30;99.90
14600;DHT22;7386;45.586;12.854;2022-10-31T01:32:41;13.20;99.90
14600;DHT22;7386;45.586;12.854;2022-10-31T01:35:09;13.20;99.90
14600;DHT22;7386;45.586;12.854;2022-10-31T01:40:07;13.20;99.90
14600;DHT22;7386;45.586;12.854;2022-10-31T01:42:35;13.20;99.90
14600;DHT22;7386;45.586;12.854;2022-10-31T01:45:05;13.20;99.90
14600;DHT22;7386;45.586;12.854;2022-10-31T01:47:38;13.20;99.90
14600;DHT22;7386;45.586;12.854;2022-10-31T01:50:20;13.20;99.90
14600;DHT22;7386;45.586;12.854;2022-10-31T01:52:52;13.20;99.90
14600;DHT22;7386;45.586;12.854;2022-10-31T01:55:23;13.20;99.90
14600;DHT22;7386;45.586;12.854;2022-10-31T01:57:59;13.30;99.90
14600;DHT22;7386;45.586;12.854;2022-10-31T02:00:30;13.20;99.90
14600;DHT22;7386;45.586;12.854;2022-10-31T02:05:30;13.20;99.90
14600;DHT22;7386;45.586;12.854;2022-10-31T02:08:02;13.20;99.90
14600;DHT22;7386;45.586;12.854;2022-10-31T02:10:33;13.10;99.90
14600;DHT22;7386;45.586;12.854;2022-10-31T02:13:04;13.10;99.90
14600;DHT22;7386;45.586;12.854;2022-10-31T02:15:33;13.10;99.90
14600;DHT22;7386;45.586;12.854;2022-10-31T02:18:03;13.00;99.90
14600;DHT22;7386;45.586;12.854;2022-10-31T02:20:39;13.00;99.90
14600;DHT22;7386;45.586;12.854;2022-10-31T02:23:41;13.00;99.90
14600;DHT22;7386;45.586;12.854;2022-10-31T02:26:32;12.90;99.90
14600;DHT22;7386;45.586;12.854;2022-10-31T02:32:01;12.90;99.90
14600;DHT22;7386;45.586;12.854;2022-10-31T02:34:37;12.80;99.90
14600;DHT22;7386;45.586;12.854;2022-10-31T02:37:12;12.80;99.90
14600;DHT22;7386;45.586;12.854;2022-10-31T02:39:48;12.70;99.90
14600;DHT22;7386;45.586;12.854;2022-10-31T02:42:23;12.70;99.90
14600;DHT22;7386;45.586;12.854;2022-10-31T02:44:59;12.70;99.90
14600;DHT22;7386;45.586;12.854;2022-10-31T02:47:33;12.60;99.90
14600;DHT22;7386;45.586;12.854;2022-10-31T02:50:06;12.60;99.90
14600;DHT22;7386;45.586;12.854;2022-10-31T02:52:36;12.60;99.90
14600;DHT22;7386;45.586;12.854;2022-10-31T02:55:39;12.60;99.90
14600;DHT22;7386;45.586;12.854;2022-10-31T02:58:04;12.60;99.90
14600;DHT22;7386;45.586;12.854;2022-10-31T03:00:39;12.60;99.90
14600;DHT22;7386;45.586;12.854;2022-10-31T03:03:19;12.60;99.90
14600;DHT22;7386;45.586;12.854;2022-10-31T03:05:54;12.60;99.90
14600;DHT22;7386;45.586;12.854;2022-10-31T03:08:33;12.70;99.90
14600;DHT22;7386;45.586;12.854;2022-10-31T03:11:04;12.70;99.90
14600;DHT22;7386;45.586;12.854;2022-10-31T03:13:38;12.80;99.90
14600;DHT22;7386;45.586;12.854;2022-10-31T03:16:11;12.80;99.90
14600;DHT22;7386;45.586;12.854;2022-10-31T03:18:48;12.80;99.90
14600;DHT22;7386;45.586;12.854;2022-10-31T03:21:21;12.90;99.90
14600;DHT22;7386;45.586;12.854;2022-10-31T03:23:51;12.90;99.90
14600;DHT22;7386;45.586;12.854;2022-10-31T03:26:22;12.90;99.90
14600;DHT22;7386;45.586;12.854;2022-10-31T03:28:54;12.90;99.90
14600;DHT22;7386;45.586;12.854;2022-10-31T03:31:27;12.90;99.90
14600;DHT22;7386;45.586;12.854;2022-10-31T03:33:59;12.90;99.90
14600;DHT22;7386;45.586;12.854;2022-10-31T03:36:30;12.90;99.90
14600;DHT22;7386;45.586;12.854;2022-10-31T03:39:01;12.90;99.90
14600;DHT22;7386;45.586;12.854;2022-10-31T03:41:35;12.90;99.90
14600;DHT22;7386;45.586;12.854;2022-10-31T03:44:09;12.90;99.90
14600;DHT22;7386;45.586;12.854;2022-10-31T03:46:39;12.90;99.90
14600;DHT22;7386;45.586;12.854;2022-10-31T03:49:09;12.90;99.90
14600;DHT22;7386;45.586;12.854;2022-10-31T03:51:42;12.90;99.90
14600;DHT22;7386;45.586;12.854;2022-10-31T03:54:18;13.00;99.90
14600;DHT22;7386;45.586;12.854;2022-10-31T03:56:50;13.00;99.90
14600;DHT22;7386;45.586;12.854;2022-10-31T03:59:23;12.90;99.90
14600;DHT22;7386;45.586;12.854;2022-10-31T04:01:55;12.90;99.90
14600;DHT22;7386;45.586;12.854;2022-10-31T04:04:28;12.80;99.90
14600;DHT22;7386;45.586;12.854;2022-10-31T04:06:58;12.80;99.90
14600;DHT22;7386;45.586;12.854;2022-10-31T04:09:32;12.80;99.90
14600;DHT22;7386;45.586;12.854;2022-10-31T04:12:03;12.80;99.90
14600;DHT22;7386;45.586;12.854;2022-10-31T04:14:34;12.70;99.90
14600;DHT22;7386;45.586;12.854;2022-10-31T04:17:07;12.70;99.90
14600;DHT22;7386;45.586;12.854;2022-10-31T04:19:37;12.70;99.90
14600;DHT22;7386;45.586;12.854;2022-10-31T04:22:05;12.70;99.90
14600;DHT22;7386;45.586;12.854;2022-10-31T04:24:33;12.70;99.90
14600;DHT22;7386;45.586;12.854;2022-10-31T04:27:02;12.70;99.90
14600;DHT22;7386;45.586;12.854;2022-10-31T04:29:30;12.70;99.90
14600;DHT22;7386;45.586;12.854;2022-10-31T04:31:58;12.70;99.90
14600;DHT22;7386;45.586;12.854;2022-10-31T04:34:26;12.70;99.90
14600;DHT22;7386;45.586;12.854;2022-10-31T04:36:56;12.70;99.90
14600;DHT22;7386;45.586;12.854;2022-10-31T04:39:24;12.70;99.90
14600;DHT22;7386;45.586;12.854;2022-10-31T04:41:52;12.70;99.90
14600;DHT22;7386;45.586;12.854;2022-10-31T04:44:21;12.70;99.90
14600;DHT22;7386;45.586;12.854;2022-10-31T04:46:49;12.70;99.90
14600;DHT22;7386;45.586;12.854;2022-10-31T04:49:17;12.80;99.90
14600;DHT22;7386;45.586;12.854;2022-10-31T04:51:45;12.80;99.90
14600;DHT22;7386;45.586;12.854;2022-10-31T04:54:15;12.80;99.90
14600;DHT22;7386;45.586;12.854;2022-10-31T04:56:44;12.80;99.90
14600;DHT22;7386;45.586;12.854;2022-10-31T04:59:12;12.80;99.90
14600;DHT22;7386;45.586;12.854;2022-10-31T05:01:40;12.90;99.90
14600;DHT22;7386;45.586;12.854;2022-10-31T05:04:08;12.90;99.90
14600;DHT22;7386;45.586;12.854;2022-10-31T05:06:37;12.90;99.90
14600;DHT22;7386;45.586;12.854;2022-10-31T05:09:05;12.90;99.90
14600;DHT22;7386;45.586;12.854;2022-10-31T05:11:34;12.90;99.90
14600;DHT22;7386;45.586;12.854;2022-10-31T05:14:03;12.90;99.90
14600;DHT22;7386;45.586;12.854;2022-10-31T05:16:31;12.80;99.90
14600;DHT22;7386;45.586;12.854;2022-10-31T05:18:59;12.80;99.90
14600;DHT22;7386;45.586;12.854;2022-10-31T05:21:27;12.80;99.90
14600;DHT22;7386;45.586;12.854;2022-10-31T05:23:55;12.80;99.90
14600;DHT22;7386;45.586;12.854;2022-10-31T05:26:24;12.80;99.90
14600;DHT22;7386;45.586;12.854;2022-10-31T05:28:53;12.70;99.90
14600;DHT22;7386;45.586;12.854;2022-10-31T05:31:21;12.70;99.90
14600;DHT22;7386;45.586;12.854;2022-10-31T05:33:50;12.70;99.90
14600;DHT22;7386;45.586;12.854;2022-10-31T05:36:18;12.70;99.90
14600;DHT22;7386;45.586;12.854;2022-10-31T05:38:46;12.70;99.90
14600;DHT22;7386;45.586;12.854;2022-10-31T05:41:14;12.70;99.90
14600;DHT22;7386;45.586;12.854;2022-10-31T05:43:42;12.60;99.90
14600;DHT22;7386;45.586;12.854;2022-10-31T05:46:12;12.60;99.90
14600;DHT22;7386;45.586;12.854;2022-10-31T05:48:40;12.60;99.90
14600;DHT22;7386;45.586;12.854;2022-10-31T05:51:08;12.60;99.90
14600;DHT22;7386;45.586;12.854;2022-10-31T05:53:37;12.60;99.90
14600;DHT22;7386;45.586;12.854;2022-10-31T05:56:05;12.60;99.90
14600;DHT22;7386;45.586;12.854;2022-10-31T05:58:33;12.60;99.90
14600;DHT22;7386;45.586;12.854;2022-10-31T06:01:01;12.60;99.90
14600;DHT22;7386;45.586;12.854;2022-10-31T06:03:31;12.60;99.90
14600;DHT22;7386;45.586;12.854;2022-10-31T06:06:00;12.60;99.90
14600;DHT22;7386;45.586;12.854;2022-10-31T06:08:28;12.60;99.90
14600;DHT22;7386;45.586;12.854;2022-10-31T06:10:56;12.60;99.90
14600;DHT22;7386;45.586;12.854;2022-10-31T06:13:24;12.70;99.90
14600;DHT22;7386;45.586;12.854;2022-10-31T06:15:53;12.70;99.90
14600;DHT22;7386;45.586;12.854;2022-10-31T06:18:21;12.70;99.90
14600;DHT22;7386;45.586;12.854;2022-10-31T06:20:51;12.70;99.90
14600;DHT22;7386;45.586;12.854;2022-10-31T06:23:19;12.70;99.90
14600;DHT22;7386;45.586;12.854;2022-10-31T06:25:48;12.70;99.90
14600;DHT22;7386;45.586;12.854;2022-10-31T06:28:17;12.70;99.90
14600;DHT22;7386;45.586;12.854;2022-10-31T06:30:45;12.70;99.90
14600;DHT22;7386;45.586;12.854;2022-10-31T06:33:14;12.70;99.90
14600;DHT22;7386;45.586;12.854;2022-10-31T06:35:45;12.70;99.90
14600;DHT22;7386;45.586;12.854;2022-10-31T06:38:15;12.80;99.90
14600;DHT22;7386;45.586;12.854;2022-10-31T06:40:43;12.80;99.90
14600;DHT22;7386;45.586;12.854;2022-10-31T06:43:11;12.90;99.90
14600;DHT22;7386;45.586;12.854;2022-10-31T06:45:41;13.00;99.90
14600;DHT22;7386;45.586;12.854;2022-10-31T06:48:09;13.00;99.90
14600;DHT22;7386;45.586;12.854;2022-10-31T06:50:43;13.00;99.90
14600;DHT22;7386;45.586;12.854;2022-10-31T06:53:12;13.10;99.90
14600;DHT22;7386;45.586;12.854;2022-10-31T06:55:42;13.10;99.90
14600;DHT22;7386;45.586;12.854;2022-10-31T06:58:11;13.20;99.90
14600;DHT22;7386;45.586;12.854;2022-10-31T07:00:39;13.20;99.90
14600;DHT22;7386;45.586;12.854;2022-10-31T07:03:10;13.20;99.90
14600;DHT22;7386;45.586;12.854;2022-10-31T07:05:39;13.30;99.90
14600;DHT22;7386;45.586;12.854;2022-10-31T07:08:09;13.30;99.90
14600;DHT22;7386;45.586;12.854;2022-10-31T07:10:40;13.40;99.90
14600;DHT22;7386;45.586;12.854;2022-10-31T07:13:11;13.40;99.90
14600;DHT22;7386;45.586;12.854;2022-10-31T07:15:41;13.50;99.90
14600;DHT22;7386;45.586;12.854;2022-10-31T07:18:11;13.50;99.90
14600;DHT22;7386;45.586;12.854;2022-10-31T07:20:39;13.50;99.90
14600;DHT22;7386;45.586;12.854;2022-10-31T07:23:08;13.50;99.90
14600;DHT22;7386;45.586;12.854;2022-10-31T07:25:37;13.60;99.90
14600;DHT22;7386;45.586;12.854;2022-10-31T07:28:06;13.70;99.90
14600;DHT22;7386;45.586;12.854;2022-10-31T07:30:36;13.70;99.90
14600;DHT22;7386;45.586;12.854;2022-10-31T07:33:05;13.70;99.90
14600;DHT22;7386;45.586;12.854;2022-10-31T07:35:33;13.70;99.90
14600;DHT22;7386;45.586;12.854;2022-10-31T07:38:09;13.80;99.90
14600;DHT22;7386;45.586;12.854;2022-10-31T07:40:37;13.80;99.90
14600;DHT22;7386;45.586;12.854;2022-10-31T07:45:41;13.90;99.90
14600;DHT22;7386;45.586;12.854;2022-10-31T07:48:09;14.00;99.90
14600;DHT22;7386;45.586;12.854;2022-10-31T07:50:38;14.00;99.90
14600;DHT22;7386;45.586;12.854;2022-10-31T07:53:09;14.10;99.90
14600;DHT22;7386;45.586;12.854;2022-10-31T07:55:38;14.20;99.90
14600;DHT22;7386;45.586;12.854;2022-10-31T07:58:07;14.20;99.90
14600;DHT22;7386;45.586;12.854;2022-10-31T08:00:37;14.30;99.90
14600;DHT22;7386;45.586;12.854;2022-10-31T08:03:08;14.40;99.90
14600;DHT22;7386;45.586;12.854;2022-10-31T08:05:37;14.40;99.90
14600;DHT22;7386;45.586;12.854;2022-10-31T08:08:07;14.50;99.90
14600;DHT22;7386;45.586;12.854;2022-10-31T08:10:35;14.60;99.90
14600;DHT22;7386;45.586;12.854;2022-10-31T08:13:05;14.60;99.90
14600;DHT22;7386;45.586;12.854;2022-10-31T08:15:34;14.70;99.90
14600;DHT22;7386;45.586;12.854;2022-10-31T08:28:05;14.80;99.90
14600;DHT22;7386;45.586;12.854;2022-10-31T08:50:32;15.40;99.90
14600;DHT22;7386;45.586;12.854;2022-10-31T08:53:03;15.80;99.90
14600;DHT22;7386;45.586;12.854;2022-10-31T08:55:33;15.80;99.90
14600;DHT22;7386;45.586;12.854;2022-10-31T08:58:03;15.90;99.90
14600;DHT22;7386;45.586;12.854;2022-10-31T09:00:31;16.00;99.90
14600;DHT22;7386;45.586;12.854;2022-10-31T09:03:02;16.00;99.90
14600;DHT22;7386;45.586;12.854;2022-10-31T09:05:31;16.10;99.90
14600;DHT22;7386;45.586;12.854;2022-10-31T09:08:02;16.20;99.90
14600;DHT22;7386;45.586;12.854;2022-10-31T09:10:32;16.20;99.90
14600;DHT22;7386;45.586;12.854;2022-10-31T09:13:03;16.30;99.90
14600;DHT22;7386;45.586;12.854;2022-10-31T09:53:13;16.40;99.90
14600;DHT22;7386;45.586;12.854;2022-10-31T09:55:47;17.30;99.90
14600;DHT22;7386;45.586;12.854;2022-10-31T09:58:20;17.40;99.90
14600;DHT22;7386;45.586;12.854;2022-10-31T10:00:52;17.40;99.90
14600;DHT22;7386;45.586;12.854;2022-10-31T10:03:31;17.50;99.90
14600;DHT22;7386;45.586;12.854;2022-10-31T10:06:10;17.50;99.90
14600;DHT22;7386;45.586;12.854;2022-10-31T10:08:39;17.50;99.90
14600;DHT22;7386;45.586;12.854;2022-10-31T10:11:30;17.60;99.90
14600;DHT22;7386;45.586;12.854;2022-10-31T10:17:02;17.60;99.90
14600;DHT22;7386;45.586;12.854;2022-10-31T10:19:53;17.70;99.90
14600;DHT22;7386;45.586;12.854;2022-10-31T10:22:27;17.70;99.90
14600;DHT22;7386;45.586;12.854;2022-10-31T10:25:08;17.80;99.90
14600;DHT22;7386;45.586;12.854;2022-10-31T10:27:49;17.80;99.90
14600;DHT22;7386;45.586;12.854;2022-10-31T10:30:21;17.80;99.90
14600;DHT22;7386;45.586;12.854;2022-10-31T10:32:52;17.80;99.90
14600;DHT22;7386;45.586;12.854;2022-10-31T10:35:27;17.80;99.90
14600;DHT22;7386;45.586;12.854;2022-10-31T10:38:02;17.80;99.90
14600;DHT22;7386;45.586;12.854;2022-10-31T10:40:32;17.90;99.90
14600;DHT22;7386;45.586;12.854;2022-10-31T10:43:22;17.90;99.90
14600;DHT22;7386;45.586;12.854;2022-10-31T10:46:00;17.90;99.90
14600;DHT22;7386;45.586;12.854;2022-10-31T10:48:54;18.00;99.90
14600;DHT22;7386;45.586;12.854;2022-10-31T10:51:31;18.00;99.90
14600;DHT22;7386;45.586;12.854;2022-10-31T10:54:55;18.00;99.90
14600;DHT22;7386;45.586;12.854;2022-10-31T10:57:37;18.10;99.90
14600;DHT22;7386;45.586;12.854;2022-10-31T11:00:17;18.10;99.90
14600;DHT22;7386;45.586;12.854;2022-10-31T11:02:47;18.10;99.90
14600;DHT22;7386;45.586;12.854;2022-10-31T11:05:23;18.10;99.90
14600;DHT22;7386;45.586;12.854;2022-10-31T11:07:51;18.10;99.90
14600;DHT22;7386;45.586;12.854;2022-10-31T11:10:20;18.10;99.90
14600;DHT22;7386;45.586;12.854;2022-10-31T11:13:03;18.20;99.90
14600;DHT22;7386;45.586;12.854;2022-10-31T11:15:35;18.20;99.90
14600;DHT22;7386;45.586;12.854;2022-10-31T11:18:06;18.20;99.90
14600;DHT22;7386;45.586;12.854;2022-10-31T11:20:51;18.20;99.90
14600;DHT22;7386;45.586;12.854;2022-10-31T11:23:22;18.30;99.90
14600;DHT22;7386;45.586;12.854;2022-10-31T11:25:54;18.30;99.90
14600;DHT22;7386;45.586;12.854;2022-10-31T11:28:23;18.30;99.90
14600;DHT22;7386;45.586;12.854;2022-10-31T11:30:54;18.30;99.90
14600;DHT22;7386;45.586;12.854;2022-10-31T11:33:29;18.30;99.90
14600;DHT22;7386;45.586;12.854;2022-10-31T11:35:59;18.40;99.90
14600;DHT22;7386;45.586;12.854;2022-10-31T11:38:33;18.40;99.90
14600;DHT22;7386;45.586;12.854;2022-10-31T11:41:10;18.40;99.90
14600;DHT22;7386;45.586;12.854;2022-10-31T11:43:46;18.40;99.90
14600;DHT22;7386;45.586;12.854;2022-10-31T11:46:21;18.50;99.90
14600;DHT22;7386;45.586;12.854;2022-10-31T11:48:55;18.50;99.90
14600;DHT22;7386;45.586;12.854;2022-10-31T11:51:26;18.50;99.90
14600;DHT22;7386;45.586;12.854;2022-10-31T11:53:57;18.50;99.90
14600;DHT22;7386;45.586;12.854;2022-10-31T11:56:38;18.50;99.90
14600;DHT22;7386;45.586;12.854;2022-10-31T11:59:17;18.60;99.90
14600;DHT22;7386;45.586;12.854;2022-10-31T12:01:48;18.50;99.90
14600;DHT22;7386;45.586;12.854;2022-10-31T12:04:18;18.60;99.90
14600;DHT22;7386;45.586;12.854;2022-10-31T12:06:50;18.60;99.90
14600;DHT22;7386;45.586;12.854;2022-10-31T12:09:22;18.70;99.90
14600;DHT22;7386;45.586;12.854;2022-10-31T12:12:11;18.70;99.90
14600;DHT22;7386;45.586;12.854;2022-10-31T12:14:54;18.70;99.90
14600;DHT22;7386;45.586;12.854;2022-10-31T12:17:30;18.70;99.90
14600;DHT22;7386;45.586;12.854;2022-10-31T12:20:11;18.70;99.90
14600;DHT22;7386;45.586;12.854;2022-10-31T12:22:45;18.70;99.90
14600;DHT22;7386;45.586;12.854;2022-10-31T12:25:24;18.70;99.90
14600;DHT22;7386;45.586;12.854;2022-10-31T12:28:03;18.80;99.90
14600;DHT22;7386;45.586;12.854;2022-10-31T12:30:46;18.80;99.90
14600;DHT22;7386;45.586;12.854;2022-10-31T12:33:26;18.80;99.90
14600;DHT22;7386;45.586;12.854;2022-10-31T12:36:09;18.80;99.90
14600;DHT22;7386;45.586;12.854;2022-10-31T12:39:00;18.90;99.90
14600;DHT22;7386;45.586;12.854;2022-10-31T12:41:44;18.90;99.90
14600;DHT22;7386;45.586;12.854;2022-10-31T12:50:28;18.90;99.90
14600;DHT22;7386;45.586;12.854;2022-10-31T12:53:19;18.90;99.90
14600;DHT22;7386;45.586;12.854;2022-10-31T12:56:06;18.90;99.90
14600;DHT22;7386;45.586;12.854;2022-10-31T12:58:43;19.00;99.90
14600;DHT22;7386;45.586;12.854;2022-10-31T13:01:16;19.00;99.90
14600;DHT22;7386;45.586;12.854;2022-10-31T13:03:48;19.00;99.90
14600;DHT22;7386;45.586;12.854;2022-10-31T13:06:20;19.10;99.90
14600;DHT22;7386;45.586;12.854;2022-10-31T13:08:54;19.10;99.90
14600;DHT22;7386;45.586;12.854;2022-10-31T13:11:25;19.10;99.90
14600;DHT22;7386;45.586;12.854;2022-10-31T13:14:01;19.10;99.90
14600;DHT22;7386;45.586;12.854;2022-10-31T13:16:35;19.20;99.90
14600;DHT22;7386;45.586;12.854;2022-10-31T13:19:10;19.20;99.90
14600;DHT22;7386;45.586;12.854;2022-10-31T13:21:44;19.20;99.90
14600;DHT22;7386;45.586;12.854;2022-10-31T13:24:18;19.20;99.90
14600;DHT22;7386;45.586;12.854;2022-10-31T13:26:50;19.20;99.90
14600;DHT22;7386;45.586;12.854;2022-10-31T13:29:24;19.20;99.90
14600;DHT22;7386;45.586;12.854;2022-10-31T13:31:59;19.20;99.90
14600;DHT22;7386;45.586;12.854;2022-10-31T13:34:30;19.20;99.90
14600;DHT22;7386;45.586;12.854;2022-10-31T13:37:09;19.20;99.90
14600;DHT22;7386;45.586;12.854;2022-10-31T13:39:50;19.20;99.90
14600;DHT22;7386;45.586;12.854;2022-10-31T13:42:29;19.20;99.90
14600;DHT22;7386;45.586;12.854;2022-10-31T13:45:13;19.30;99.90
14600;DHT22;7386;45.586;12.854;2022-10-31T13:47:42;19.20;99.90
14600;DHT22;7386;45.586;12.854;2022-10-31T13:50:21;19.30;99.90
14600;DHT22;7386;45.586;12.854;2022-10-31T13:52:50;19.30;99.90
14600;DHT22;7386;45.586;12.854;2022-10-31T13:55:41;19.30;99.90
14600;DHT22;7386;45.586;12.854;2022-10-31T13:58:22;19.30;99.90
14600;DHT22;7386;45.586;12.854;2022-10-31T14:01:19;19.30;99.90
14600;DHT22;7386;45.586;12.854;2022-10-31T14:03:58;19.30;99.90
14600;DHT22;7386;45.586;12.854;2022-10-31T14:06:42;19.30;99.90
14600;DHT22;7386;45.586;12.854;2022-10-31T14:09:25;19.30;99.90
14600;DHT22;7386;45.586;12.854;2022-10-31T14:11:56;19.30;99.90
14600;DHT22;7386;45.586;12.854;2022-10-31T14:14:34;19.30;99.90
14600;DHT22;7386;45.586;12.854;2022-10-31T14:17:18;19.30;99.90
14600;DHT22;7386;45.586;12.854;2022-10-31T14:20:02;19.30;99.90
14600;DHT22;7386;45.586;12.854;2022-10-31T14:22:31;19.30;99.90
14600;DHT22;7386;45.586;12.854;2022-10-31T14:25:24;19.30;99.90
14600;DHT22;7386;45.586;12.854;2022-10-31T14:27:54;19.30;99.90
14600;DHT22;7386;45.586;12.854;2022-10-31T14:30:25;19.30;99.90
14600;DHT22;7386;45.586;12.854;2022-10-31T14:32:56;19.30;99.90
14600;DHT22;7386;45.586;12.854;2022-10-31T14:35:29;19.30;99.90
14600;DHT22;7386;45.586;12.854;2022-10-31T14:38:11;19.30;99.90
14600;DHT22;7386;45.586;12.854;2022-10-31T14:40:55;19.20;99.90
14600;DHT22;7386;45.586;12.854;2022-10-31T14:43:56;19.20;99.90
14600;DHT22;7386;45.586;12.854;2022-10-31T14:46:39;19.20;99.90
14600;DHT22;7386;45.586;12.854;2022-10-31T14:49:25;19.20;99.90
14600;DHT22;7386;45.586;12.854;2022-10-31T14:51:56;19.20;99.90
14600;DHT22;7386;45.586;12.854;2022-10-31T14:54:29;19.20;99.90
14600;DHT22;7386;45.586;12.854;2022-10-31T14:57:02;19.10;99.90
14600;DHT22;7386;45.586;12.854;2022-10-31T14:59:36;19.10;99.90
14600;DHT22;7386;45.586;12.854;2022-10-31T15:02:12;19.10;99.90
14600;DHT22;7386;45.586;12.854;2022-10-31T15:04:43;19.00;99.90
14600;DHT22;7386;45.586;12.854;2022-10-31T15:07:15;19.00;99.90
14600;DHT22;7386;45.586;12.854;2022-10-31T15:09:57;19.00;99.90
14600;DHT22;7386;45.586;12.854;2022-10-31T15:12:27;19.00;99.90
14600;DHT22;7386;45.586;12.854;2022-10-31T15:14:57;19.00;99.90
14600;DHT22;7386;45.586;12.854;2022-10-31T15:17:26;18.90;99.90
14600;DHT22;7386;45.586;12.854;2022-10-31T15:19:54;18.90;99.90
14600;DHT22;7386;45.586;12.854;2022-10-31T15:22:24;18.90;99.90
14600;DHT22;7386;45.586;12.854;2022-10-31T15:24:54;18.90;99.90
14600;DHT22;7386;45.586;12.854;2022-10-31T15:27:23;18.90;99.90
14600;DHT22;7386;45.586;12.854;2022-10-31T15:29:53;18.80;99.90
14600;DHT22;7386;45.586;12.854;2022-10-31T15:32:24;18.80;99.90
14600;DHT22;7386;45.586;12.854;2022-10-31T15:34:54;18.80;99.90
